Time,TemperatureF,DewpointF,PressureIn,WindDirection,WindDirectionDegrees,WindSpeedMPH,WindSpeedGustMPH,Humidity,HourlyPrecipIn,Conditions,Clouds,dailyrainin,SolarRadiationWatts/m^2,SoftwareType,DateUTC
2013-05-31 00:14:00,48.7,46.0,29.98,North,-999,0.0,0.0,90,0.00,,,0.00,0,weatherlink.com 1.10,2013-05-31 07:14:00,
2013-05-31 00:29:00,48.7,46.0,29.99,North,-999,0.0,0.0,91,0.00,,,0.00,0,weatherlink.com 1.10,2013-05-31 07:29:00,
2013-05-31 00:44:00,48.6,46.0,29.99,North,-999,0.0,0.0,91,0.00,,,0.00,0,weatherlink.com 1.10,2013-05-31 07:44:00,
2013-05-31 00:59:00,48.5,46.0,29.99,North,360,0.0,0.0,91,0.00,,,0.00,0,weatherlink.com 1.10,2013-05-31 07:59:00,
2013-05-31 01:14:00,48.3,46.0,29.98,North,360,0.0,0.0,91,0.00,,,0.00,0,weatherlink.com 1.10,2013-05-31 08:14:00,
2013-05-31 01:29:00,48.2,46.0,29.98,North,360,0.0,0.0,90,0.00,,,0.00,0,weatherlink.com 1.10,2013-05-31 08:29:00,
2013-05-31 01:44:00,48.2,46.0,29.99,North,-999,0.0,0.0,91,0.00,,,0.00,0,weatherlink.com 1.10,2013-05-31 08:44:00,
2013-05-31 01:59:00,48.3,46.0,29.98,North,360,0.0,0.0,90,0.00,,,0.00,0,weatherlink.com 1.10,2013-05-31 08:59:00,
2013-05-31 02:14:00,47.9,45.0,29.99,North,-999,0.0,0.0,90,0.00,,,0.00,0,weatherlink.com 1.10,2013-05-31 09:14:00,
2013-05-31 02:29:00,47.6,45.0,29.98,North,-999,0.0,0.0,90,0.00,,,0.00,0,weatherlink.com 1.10,2013-05-31 09:29:00,
2013-05-31 02:44:00,47.4,45.0,29.98,North,-999,0.0,0.0,91,0.00,,,0.00,0,weatherlink.com 1.10,2013-05-31 09:44:00,
2013-05-31 02:59:00,47.3,45.0,29.97,North,-999,0.0,0.0,91,0.00,,,0.00,0,weatherlink.com 1.10,2013-05-31 09:59:00,
2013-05-31 03:14:00,47.3,45.0,29.97,North,-999,0.0,0.0,92,0.00,,,0.00,0,weatherlink.com 1.10,2013-05-31 10:14:00,
2013-05-31 03:29:00,47.2,45.0,29.97,North,-999,0.0,0.0,92,0.00,,,0.00,0,weatherlink.com 1.10,2013-05-31 10:29:00,
2013-05-31 03:44:00,46.9,45.0,29.97,North,-999,0.0,0.0,92,0.00,,,0.00,0,weatherlink.com 1.10,2013-05-31 10:44:00,
2013-05-31 03:59:00,46.9,45.0,29.97,North,-999,0.0,0.0,92,0.00,,,0.00,0,weatherlink.com 1.10,2013-05-31 10:59:00,
2013-05-31 04:14:00,47.3,45.0,29.97,North,360,0.0,0.0,90,0.00,,,0.00,0,weatherlink.com 1.10,2013-05-31 11:14:00,
2013-05-31 04:29:00,47.8,45.0,29.97,North,-999,0.0,0.0,89,0.00,,,0.00,0,weatherlink.com 1.10,2013-05-31 11:29:00,
2013-05-31 04:44:00,48.0,45.0,29.97,North,-999,0.0,0.0,88,0.00,,,0.00,0,weatherlink.com 1.10,2013-05-31 11:44:00,
2013-05-31 04:59:00,48.1,45.0,29.97,North,-999,0.0,0.0,88,0.00,,,0.00,0,weatherlink.com 1.10,2013-05-31 11:59:00,
2013-05-31 05:14:00,48.1,45.0,29.98,North,-999,0.0,0.0,89,0.00,,,0.00,0,weatherlink.com 1.10,2013-05-31 12:14:00,
2013-05-31 05:29:00,47.7,45.0,29.98,North,-999,0.0,0.0,91,0.00,,,0.00,0,weatherlink.com 1.10,2013-05-31 12:29:00,
2013-05-31 05:44:00,47.3,45.0,29.98,North,-999,0.0,0.0,92,0.00,,,0.00,0,weatherlink.com 1.10,2013-05-31 12:44:00,
2013-05-31 05:59:00,47.1,45.0,29.99,North,360,0.0,0.0,93,0.00,,,0.00,5,weatherlink.com 1.10,2013-05-31 12:59:00,
2013-05-31 06:14:00,47.2,45.0,29.99,North,360,0.0,0.0,93,0.00,,,0.00,16,weatherlink.com 1.10,2013-05-31 13:14:00,
2013-05-31 06:29:00,47.6,46.0,30.00,North,360,0.0,0.0,93,0.00,,,0.00,26,weatherlink.com 1.10,2013-05-31 13:29:00,
2013-05-31 06:44:00,48.1,46.0,30.00,North,360,0.0,0.0,92,0.00,,,0.00,35,weatherlink.com 1.10,2013-05-31 13:44:00,
2013-05-31 06:59:00,48.8,46.0,30.00,North,360,0.0,0.0,91,0.00,,,0.00,40,weatherlink.com 1.10,2013-05-31 13:59:00,
2013-05-31 07:14:00,49.9,47.0,30.00,North,-999,0.0,0.0,89,0.00,,,0.00,46,weatherlink.com 1.10,2013-05-31 14:14:00,
2013-05-31 07:29:00,51.2,48.0,30.01,North,-999,0.0,0.0,87,0.00,,,0.00,49,weatherlink.com 1.10,2013-05-31 14:29:00,
2013-05-31 07:44:00,52.7,48.0,30.01,North,-999,0.0,0.0,85,0.00,,,0.00,51,weatherlink.com 1.10,2013-05-31 14:44:00,
2013-05-31 08:00:00,54.3,49.0,30.01,North,360,0.0,0.0,83,0.00,,,0.00,54,weatherlink.com 1.10,2013-05-31 15:00:00,
2013-05-31 08:15:00,55.8,50.0,30.01,North,-999,0.0,0.0,81,0.00,,,0.00,56,weatherlink.com 1.10,2013-05-31 15:15:00,
2013-05-31 08:30:00,57.1,50.0,30.02,North,-999,0.0,0.0,78,0.00,,,0.00,58,weatherlink.com 1.10,2013-05-31 15:30:00,
2013-05-31 08:45:00,58.0,50.0,30.02,North,360,0.0,0.0,75,0.00,,,0.00,62,weatherlink.com 1.10,2013-05-31 15:45:00,
2013-05-31 09:00:00,59.1,51.0,30.02,North,360,0.0,0.0,74,0.00,,,0.00,63,weatherlink.com 1.10,2013-05-31 16:00:00,
2013-05-31 09:15:00,60.1,51.0,30.02,North,360,0.0,0.0,73,0.00,,,0.00,69,weatherlink.com 1.10,2013-05-31 16:15:00,
2013-05-31 09:30:00,61.0,51.0,30.02,North,-999,0.0,0.0,70,0.00,,,0.00,163,weatherlink.com 1.10,2013-05-31 16:30:00,
2013-05-31 09:45:00,61.8,52.0,30.02,North,-999,0.0,0.0,70,0.00,,,0.00,705,weatherlink.com 1.10,2013-05-31 16:45:00,
2013-05-31 10:00:00,62.6,52.0,30.02,North,-999,0.0,0.0,68,0.00,,,0.00,747,weatherlink.com 1.10,2013-05-31 17:00:00,
2013-05-31 10:15:00,62.6,51.0,30.02,North,360,0.0,0.0,67,0.00,,,0.00,795,weatherlink.com 1.10,2013-05-31 17:15:00,
2013-05-31 10:30:00,64.2,52.0,30.02,North,360,0.0,0.0,64,0.00,,,0.00,831,weatherlink.com 1.10,2013-05-31 17:30:00,
2013-05-31 10:45:00,65.8,51.0,30.02,North,360,0.0,0.0,60,0.00,,,0.00,863,weatherlink.com 1.10,2013-05-31 17:45:00,
2013-05-31 11:00:00,67.4,52.0,30.01,North,-999,0.0,0.0,59,0.00,,,0.00,895,weatherlink.com 1.10,2013-05-31 18:00:00,
2013-05-31 11:15:00,68.7,51.0,30.02,North,-999,0.0,0.0,54,0.00,,,0.00,919,weatherlink.com 1.10,2013-05-31 18:15:00,
2013-05-31 11:30:00,69.0,50.0,30.02,North,360,0.0,0.0,52,0.00,,,0.00,940,weatherlink.com 1.10,2013-05-31 18:30:00,
2013-05-31 11:45:00,68.9,51.0,30.02,North,-999,0.0,0.0,54,0.00,,,0.00,969,weatherlink.com 1.10,2013-05-31 18:45:00,
2013-05-31 12:01:00,67.0,51.0,30.02,North,-999,0.0,0.0,56,0.00,,,0.00,981,weatherlink.com 1.10,2013-05-31 19:01:00,
2013-05-31 12:16:00,65.7,50.0,30.02,North,360,0.0,0.0,57,0.00,,,0.00,995,weatherlink.com 1.10,2013-05-31 19:16:00,
2013-05-31 12:31:00,64.7,50.0,30.02,North,-999,0.0,0.0,59,0.00,,,0.00,995,weatherlink.com 1.10,2013-05-31 19:31:00,
2013-05-31 12:46:00,63.8,50.0,30.02,North,-999,0.0,0.0,61,0.00,,,0.00,1000,weatherlink.com 1.10,2013-05-31 19:46:00,
2013-05-31 13:01:00,63.3,49.0,30.01,North,-999,0.0,0.0,61,0.00,,,0.00,1004,weatherlink.com 1.10,2013-05-31 20:01:00,
2013-05-31 13:16:00,63.3,50.0,30.01,North,-999,0.0,0.0,63,0.00,,,0.00,997,weatherlink.com 1.10,2013-05-31 20:16:00,
2013-05-31 13:31:00,63.8,50.0,30.01,North,360,0.0,0.0,62,0.00,,,0.00,993,weatherlink.com 1.10,2013-05-31 20:31:00,
2013-05-31 13:46:00,63.2,50.0,30.00,North,360,0.0,0.0,63,0.00,,,0.00,988,weatherlink.com 1.10,2013-05-31 20:46:00,
2013-05-31 14:01:00,64.0,51.0,30.00,North,360,0.0,0.0,62,0.00,,,0.00,979,weatherlink.com 1.10,2013-05-31 21:01:00,
2013-05-31 14:16:00,65.3,51.0,29.99,North,-999,0.0,0.0,60,0.00,,,0.00,963,weatherlink.com 1.10,2013-05-31 21:16:00,
2013-05-31 14:31:00,65.6,51.0,29.99,North,-999,0.0,0.0,59,0.00,,,0.00,944,weatherlink.com 1.10,2013-05-31 21:31:00,
2013-05-31 14:46:00,65.8,51.0,29.98,North,-999,0.0,0.0,59,0.00,,,0.00,218,weatherlink.com 1.10,2013-05-31 21:46:00,
2013-05-31 15:01:00,64.7,51.0,29.98,North,-999,0.0,0.0,61,0.00,,,0.00,65,weatherlink.com 1.10,2013-05-31 22:01:00,
2013-05-31 15:16:00,64.4,50.0,29.98,North,360,0.0,0.0,61,0.00,,,0.00,190,weatherlink.com 1.10,2013-05-31 22:16:00,
2013-05-31 15:31:00,64.9,51.0,29.97,North,360,0.0,0.0,61,0.00,,,0.00,833,weatherlink.com 1.10,2013-05-31 22:31:00,
2013-05-31 15:46:00,66.3,50.0,29.97,North,360,0.0,0.0,57,0.00,,,0.00,803,weatherlink.com 1.10,2013-05-31 22:46:00,
2013-05-31 16:01:00,65.7,51.0,29.96,North,-999,0.0,0.0,59,0.00,,,0.00,40,weatherlink.com 1.10,2013-05-31 23:01:00,
2013-05-31 16:16:00,64.2,50.0,29.96,North,360,0.0,0.0,61,0.00,,,0.00,37,weatherlink.com 1.10,2013-05-31 23:16:00,
2013-05-31 16:31:00,62.5,50.0,29.95,North,-999,0.0,0.0,64,0.00,,,0.00,44,weatherlink.com 1.10,2013-05-31 23:31:00,
2013-05-31 16:46:00,61.2,50.0,29.95,North,-999,0.0,0.0,66,0.00,,,0.00,35,weatherlink.com 1.10,2013-05-31 23:46:00,
2013-05-31 17:01:00,60.4,50.0,29.95,North,-999,0.0,0.0,68,0.00,,,0.00,40,weatherlink.com 1.10,2013-06-01 00:01:00,
2013-05-31 17:16:00,59.7,49.0,29.95,North,-999,0.0,0.0,69,0.00,,,0.00,69,weatherlink.com 1.10,2013-06-01 00:16:00,
2013-05-31 17:31:00,59.5,49.0,29.94,North,-999,0.0,0.0,69,0.00,,,0.00,47,weatherlink.com 1.10,2013-06-01 00:31:00,
2013-05-31 17:46:00,58.8,49.0,29.94,North,-999,0.0,0.0,70,0.00,,,0.00,33,weatherlink.com 1.10,2013-06-01 00:46:00,
2013-05-31 18:01:00,58.1,49.0,29.94,North,360,0.0,0.0,71,0.00,,,0.00,30,weatherlink.com 1.10,2013-06-01 01:01:00,
2013-05-31 18:16:00,57.2,49.0,29.94,North,360,0.0,0.0,73,0.00,,,0.00,26,weatherlink.com 1.10,2013-06-01 01:16:00,
2013-05-31 18:31:00,56.5,48.0,29.94,North,-999,0.0,0.0,74,0.00,,,0.00,26,weatherlink.com 1.10,2013-06-01 01:31:00,
2013-05-31 18:46:00,56.5,48.0,29.94,North,360,0.0,0.0,74,0.00,,,0.00,28,weatherlink.com 1.10,2013-06-01 01:46:00,
2013-05-31 19:01:00,56.5,48.0,29.93,North,-999,0.0,0.0,74,0.00,,,0.00,121,weatherlink.com 1.10,2013-06-01 02:01:00,
2013-05-31 19:16:00,56.3,49.0,29.93,North,-999,0.0,0.0,77,0.00,,,0.00,30,weatherlink.com 1.10,2013-06-01 02:16:00,
2013-05-31 19:31:00,55.9,48.0,29.93,North,-999,0.0,0.0,75,0.00,,,0.00,21,weatherlink.com 1.10,2013-06-01 02:31:00,
2013-05-31 19:46:00,55.6,48.0,29.93,North,-999,0.0,0.0,75,0.00,,,0.00,23,weatherlink.com 1.10,2013-06-01 02:46:00,
2013-05-31 20:01:00,54.5,47.0,29.93,North,-999,0.0,0.0,77,0.00,,,0.00,9,weatherlink.com 1.10,2013-06-01 03:01:00,
2013-05-31 20:16:00,53.8,47.0,29.93,North,360,0.0,0.0,79,0.00,,,0.00,5,weatherlink.com 1.10,2013-06-01 03:16:00,
2013-05-31 20:31:00,53.2,47.0,29.93,North,360,0.0,0.0,80,0.00,,,0.00,0,weatherlink.com 1.10,2013-06-01 03:31:00,
2013-05-31 20:46:00,52.7,47.0,29.93,North,-999,0.0,0.0,81,0.00,,,0.00,0,weatherlink.com 1.10,2013-06-01 03:46:00,
2013-05-31 21:01:00,52.2,47.0,29.93,North,-999,0.0,0.0,82,0.00,,,0.00,0,weatherlink.com 1.10,2013-06-01 04:01:00,
2013-05-31 21:16:00,51.7,47.0,29.93,North,-999,0.0,0.0,83,0.00,,,0.00,0,weatherlink.com 1.10,2013-06-01 04:16:00,
2013-05-31 21:31:00,51.4,47.0,29.94,North,-999,0.0,0.0,84,0.00,,,0.00,0,weatherlink.com 1.10,2013-06-01 04:31:00,
2013-05-31 21:46:00,51.1,47.0,29.94,North,360,0.0,0.0,85,0.00,,,0.00,0,weatherlink.com 1.10,2013-06-01 04:46:00,
2013-05-31 22:01:00,50.7,47.0,29.94,North,360,0.0,0.0,86,0.00,,,0.00,0,weatherlink.com 1.10,2013-06-01 05:01:00,
2013-05-31 22:16:00,50.3,47.0,29.94,North,360,0.0,0.0,87,0.00,,,0.00,0,weatherlink.com 1.10,2013-06-01 05:16:00,
2013-05-31 22:31:00,50.0,47.0,29.94,North,-999,0.0,0.0,88,0.00,,,0.00,0,weatherlink.com 1.10,2013-06-01 05:31:00,
2013-05-31 22:46:00,49.9,47.0,29.94,North,-999,0.0,0.0,88,0.00,,,0.00,0,weatherlink.com 1.10,2013-06-01 05:46:00,
2013-05-31 23:01:00,49.7,46.0,29.94,North,-999,0.0,0.0,88,0.00,,,0.00,0,weatherlink.com 1.10,2013-06-01 06:01:00,
2013-05-31 23:16:00,49.6,47.0,29.94,North,-999,0.0,0.0,89,0.00,,,0.00,0,weatherlink.com 1.10,2013-06-01 06:16:00,
2013-05-31 23:31:00,49.4,46.0,29.94,North,360,0.0,0.0,89,0.00,,,0.00,0,weatherlink.com 1.10,2013-06-01 06:31:00,
2013-05-31 23:46:00,49.2,46.0,29.94,North,360,0.0,0.0,89,0.00,,,0.00,0,weatherlink.com 1.10,2013-06-01 06:46:00,